sensor_id;sensor_type;location;lat;lon;timestamp;temperature;humidity
72940;DHT22;61094;51.154;13.570;2023-04-21T00:00:27;6.30;99.90
72940;DHT22;61094;51.154;13.570;2023-04-21T00:05:31;6.30;99.90
72940;DHT22;61094;51.154;13.570;2023-04-21T00:10:33;6.20;99.90
72940;DHT22;61094;51.154;13.570;2023-04-21T00:15:35;6.10;99.90
72940;DHT22;61094;51.154;13.570;2023-04-21T00:20:38;6.00;99.90
72940;DHT22;61094;51.154;13.570;2023-04-21T00:25:40;5.90;99.90
72940;DHT22;61094;51.154;13.570;2023-04-21T00:30:42;5.80;99.90
72940;DHT22;61094;51.154;13.570;2023-04-21T00:35:46;5.80;99.90
72940;DHT22;61094;51.154;13.570;2023-04-21T00:40:48;5.70;99.90
72940;DHT22;61094;51.154;13.570;2023-04-21T00:45:49;5.70;99.90
72940;DHT22;61094;51.154;13.570;2023-04-21T00:50:53;5.60;99.90
72940;DHT22;61094;51.154;13.570;2023-04-21T00:55:55;5.50;99.90
72940;DHT22;61094;51.154;13.570;2023-04-21T01:00:56;5.50;99.90
72940;DHT22;61094;51.154;13.570;2023-04-21T01:06:00;5.40;99.90
72940;DHT22;61094;51.154;13.570;2023-04-21T01:11:08;5.30;99.90
72940;DHT22;61094;51.154;13.570;2023-04-21T01:16:15;5.20;99.90
72940;DHT22;61094;51.154;13.570;2023-04-21T01:21:19;5.20;99.90
72940;DHT22;61094;51.154;13.570;2023-04-21T01:26:22;5.20;99.90
72940;DHT22;61094;51.154;13.570;2023-04-21T01:31:24;5.10;99.90
72940;DHT22;61094;51.154;13.570;2023-04-21T01:36:26;5.10;99.90
72940;DHT22;61094;51.154;13.570;2023-04-21T01:41:29;5.10;99.90
72940;DHT22;61094;51.154;13.570;2023-04-21T01:46:31;5.10;99.90
72940;DHT22;61094;51.154;13.570;2023-04-21T01:51:33;5.00;99.90
72940;DHT22;61094;51.154;13.570;2023-04-21T01:56:36;4.90;99.90
72940;DHT22;61094;51.154;13.570;2023-04-21T02:01:38;4.70;99.90
72940;DHT22;61094;51.154;13.570;2023-04-21T02:06:40;4.70;99.90
72940;DHT22;61094;51.154;13.570;2023-04-21T02:11:43;4.60;99.90
72940;DHT22;61094;51.154;13.570;2023-04-21T02:16:45;4.60;99.90
72940;DHT22;61094;51.154;13.570;2023-04-21T02:21:46;4.50;99.90
72940;DHT22;61094;51.154;13.570;2023-04-21T02:26:49;4.40;99.90
72940;DHT22;61094;51.154;13.570;2023-04-21T02:31:51;4.40;99.90
72940;DHT22;61094;51.154;13.570;2023-04-21T02:36:53;4.30;99.90
72940;DHT22;61094;51.154;13.570;2023-04-21T02:41:56;4.30;99.90
72940;DHT22;61094;51.154;13.570;2023-04-21T02:46:58;4.20;99.90
72940;DHT22;61094;51.154;13.570;2023-04-21T02:51:59;4.10;99.90
72940;DHT22;61094;51.154;13.570;2023-04-21T02:57:05;4.10;99.90
72940;DHT22;61094;51.154;13.570;2023-04-21T03:02:08;4.00;99.90
72940;DHT22;61094;51.154;13.570;2023-04-21T03:07:12;3.90;99.90
72940;DHT22;61094;51.154;13.570;2023-04-21T03:12:15;3.90;99.90
72940;DHT22;61094;51.154;13.570;2023-04-21T03:17:18;3.80;99.90
72940;DHT22;61094;51.154;13.570;2023-04-21T03:22:21;3.70;99.90
72940;DHT22;61094;51.154;13.570;2023-04-21T03:27:24;3.60;99.90
72940;DHT22;61094;51.154;13.570;2023-04-21T03:32:26;3.60;99.90
72940;DHT22;61094;51.154;13.570;2023-04-21T03:37:28;3.50;99.90
72940;DHT22;61094;51.154;13.570;2023-04-21T03:42:32;3.50;99.90
72940;DHT22;61094;51.154;13.570;2023-04-21T03:47:34;3.50;99.90
72940;DHT22;61094;51.154;13.570;2023-04-21T03:52:36;3.40;99.90
72940;DHT22;61094;51.154;13.570;2023-04-21T03:57:40;3.40;99.90
72940;DHT22;61094;51.154;13.570;2023-04-21T04:02:42;3.30;99.90
72940;DHT22;61094;51.154;13.570;2023-04-21T04:07:44;3.30;99.90
72940;DHT22;61094;51.154;13.570;2023-04-21T04:12:47;3.20;99.90
72940;DHT22;61094;51.154;13.570;2023-04-21T04:17:49;3.10;99.90
72940;DHT22;61094;51.154;13.570;2023-04-21T04:22:51;3.10;99.90
72940;DHT22;61094;51.154;13.570;2023-04-21T04:27:56;3.00;99.90
72940;DHT22;61094;51.154;13.570;2023-04-21T04:32:58;3.00;99.90
72940;DHT22;61094;51.154;13.570;2023-04-21T04:38:00;3.00;99.90
72940;DHT22;61094;51.154;13.570;2023-04-21T04:43:03;3.00;99.90
72940;DHT22;61094;51.154;13.570;2023-04-21T04:48:05;3.00;99.90
72940;DHT22;61094;51.154;13.570;2023-04-21T04:53:07;3.10;99.90
72940;DHT22;61094;51.154;13.570;2023-04-21T04:58:10;3.20;99.90
72940;DHT22;61094;51.154;13.570;2023-04-21T05:03:12;3.20;99.90
72940;DHT22;61094;51.154;13.570;2023-04-21T05:08:14;3.20;99.90
72940;DHT22;61094;51.154;13.570;2023-04-21T05:13:17;3.40;99.90
72940;DHT22;61094;51.154;13.570;2023-04-21T05:18:19;3.50;99.90
72940;DHT22;61094;51.154;13.570;2023-04-21T05:23:21;3.60;99.90
72940;DHT22;61094;51.154;13.570;2023-04-21T05:28:25;3.70;99.90
72940;DHT22;61094;51.154;13.570;2023-04-21T05:33:29;3.90;99.90
72940;DHT22;61094;51.154;13.570;2023-04-21T05:38:31;3.90;99.90
72940;DHT22;61094;51.154;13.570;2023-04-21T05:43:34;4.10;99.90
72940;DHT22;61094;51.154;13.570;2023-04-21T05:48:36;4.10;99.90
72940;DHT22;61094;51.154;13.570;2023-04-21T05:53:38;4.30;99.90
72940;DHT22;61094;51.154;13.570;2023-04-21T05:58:42;4.40;99.90
72940;DHT22;61094;51.154;13.570;2023-04-21T06:04:20;4.50;99.90
72940;DHT22;61094;51.154;13.570;2023-04-21T06:09:25;4.60;99.90
72940;DHT22;61094;51.154;13.570;2023-04-21T06:14:28;4.70;99.90
72940;DHT22;61094;51.154;13.570;2023-04-21T06:19:35;4.90;99.90
72940;DHT22;61094;51.154;13.570;2023-04-21T06:24:37;5.10;99.90
72940;DHT22;61094;51.154;13.570;2023-04-21T06:29:42;5.20;99.90
72940;DHT22;61094;51.154;13.570;2023-04-21T06:34:44;5.40;99.90
72940;DHT22;61094;51.154;13.570;2023-04-21T06:39:46;5.60;99.90
72940;DHT22;61094;51.154;13.570;2023-04-21T06:44:49;5.80;99.90
72940;DHT22;61094;51.154;13.570;2023-04-21T06:49:51;6.00;99.90
72940;DHT22;61094;51.154;13.570;2023-04-21T06:54:55;6.30;99.90
72940;DHT22;61094;51.154;13.570;2023-04-21T06:59:58;6.50;99.90
72940;DHT22;61094;51.154;13.570;2023-04-21T07:05:02;6.70;99.90
72940;DHT22;61094;51.154;13.570;2023-04-21T07:10:04;7.10;99.90
72940;DHT22;61094;51.154;13.570;2023-04-21T07:15:10;7.60;99.90
72940;DHT22;61094;51.154;13.570;2023-04-21T07:20:12;8.30;99.90
72940;DHT22;61094;51.154;13.570;2023-04-21T07:25:14;9.00;99.90
72940;DHT22;61094;51.154;13.570;2023-04-21T07:30:17;9.80;99.90
72940;DHT22;61094;51.154;13.570;2023-04-21T07:35:19;10.60;99.90
72940;DHT22;61094;51.154;13.570;2023-04-21T07:40:21;11.30;99.90
72940;DHT22;61094;51.154;13.570;2023-04-21T07:45:24;12.00;99.90
72940;DHT22;61094;51.154;13.570;2023-04-21T07:50:35;12.50;99.90
72940;DHT22;61094;51.154;13.570;2023-04-21T07:55:40;12.90;99.90
72940;DHT22;61094;51.154;13.570;2023-04-21T08:00:44;13.20;99.90
72940;DHT22;61094;51.154;13.570;2023-04-21T08:05:45;13.50;99.90
72940;DHT22;61094;51.154;13.570;2023-04-21T08:10:47;13.80;99.90
72940;DHT22;61094;51.154;13.570;2023-04-21T08:15:50;14.10;99.90
72940;DHT22;61094;51.154;13.570;2023-04-21T08:20:52;14.40;98.90
72940;DHT22;61094;51.154;13.570;2023-04-21T08:25:56;14.70;98.30
72940;DHT22;61094;51.154;13.570;2023-04-21T08:30:59;15.40;55.60
72940;DHT22;61094;51.154;13.570;2023-04-21T08:36:02;16.10;55.80
72940;DHT22;61094;51.154;13.570;2023-04-21T08:41:04;16.50;52.20
72940;DHT22;61094;51.154;13.570;2023-04-21T08:46:08;16.70;50.60
72940;DHT22;61094;51.154;13.570;2023-04-21T08:51:10;17.00;50.30
72940;DHT22;61094;51.154;13.570;2023-04-21T08:56:11;17.20;48.30
72940;DHT22;61094;51.154;13.570;2023-04-21T09:01:14;17.30;45.90
72940;DHT22;61094;51.154;13.570;2023-04-21T09:06:16;17.50;46.00
72940;DHT22;61094;51.154;13.570;2023-04-21T09:11:18;17.60;46.00
72940;DHT22;61094;51.154;13.570;2023-04-21T09:16:21;17.90;47.40
72940;DHT22;61094;51.154;13.570;2023-04-21T09:21:27;17.90;43.70
72940;DHT22;61094;51.154;13.570;2023-04-21T09:26:29;18.00;42.90
72940;DHT22;61094;51.154;13.570;2023-04-21T09:31:34;18.20;43.80
72940;DHT22;61094;51.154;13.570;2023-04-21T09:36:36;18.50;41.70
72940;DHT22;61094;51.154;13.570;2023-04-21T09:41:37;18.80;42.60
72940;DHT22;61094;51.154;13.570;2023-04-21T09:46:42;19.00;42.30
72940;DHT22;61094;51.154;13.570;2023-04-21T09:51:44;19.20;42.80
72940;DHT22;61094;51.154;13.570;2023-04-21T09:56:48;19.60;42.90
72940;DHT22;61094;51.154;13.570;2023-04-21T10:01:53;19.80;40.60
72940;DHT22;61094;51.154;13.570;2023-04-21T10:06:55;19.80;39.10
72940;DHT22;61094;51.154;13.570;2023-04-21T10:12:04;19.80;40.30
72940;DHT22;61094;51.154;13.570;2023-04-21T10:17:08;20.00;42.30
72940;DHT22;61094;51.154;13.570;2023-04-21T10:22:10;20.20;43.10
72940;DHT22;61094;51.154;13.570;2023-04-21T10:27:29;20.30;43.10
72940;DHT22;61094;51.154;13.570;2023-04-21T10:32:40;20.50;40.00
72940;DHT22;61094;51.154;13.570;2023-04-21T10:37:42;20.60;41.00
72940;DHT22;61094;51.154;13.570;2023-04-21T10:42:43;20.50;37.50
72940;DHT22;61094;51.154;13.570;2023-04-21T10:47:48;20.40;37.30
72940;DHT22;61094;51.154;13.570;2023-04-21T10:58:01;21.10;38.20
72940;DHT22;61094;51.154;13.570;2023-04-21T11:03:06;21.00;38.50
72940;DHT22;61094;51.154;13.570;2023-04-21T11:08:10;21.20;36.90
72940;DHT22;61094;51.154;13.570;2023-04-21T11:13:13;21.30;35.40
72940;DHT22;61094;51.154;13.570;2023-04-21T11:18:17;21.40;34.80
72940;DHT22;61094;51.154;13.570;2023-04-21T11:23:18;21.40;33.40
72940;DHT22;61094;51.154;13.570;2023-04-21T11:28:20;21.20;34.30
72940;DHT22;61094;51.154;13.570;2023-04-21T11:33:24;21.20;35.00
72940;DHT22;61094;51.154;13.570;2023-04-21T11:38:36;21.30;34.70
72940;DHT22;61094;51.154;13.570;2023-04-21T11:43:37;21.00;36.60
72940;DHT22;61094;51.154;13.570;2023-04-21T11:48:42;20.40;34.90
72940;DHT22;61094;51.154;13.570;2023-04-21T11:53:45;20.20;37.50
72940;DHT22;61094;51.154;13.570;2023-04-21T11:58:49;20.20;36.90
72940;DHT22;61094;51.154;13.570;2023-04-21T12:03:54;20.10;37.00
72940;DHT22;61094;51.154;13.570;2023-04-21T12:08:59;19.70;35.90
72940;DHT22;61094;51.154;13.570;2023-04-21T12:14:01;20.10;35.70
72940;DHT22;61094;51.154;13.570;2023-04-21T12:19:04;20.30;36.70
72940;DHT22;61094;51.154;13.570;2023-04-21T12:24:06;20.60;35.20
72940;DHT22;61094;51.154;13.570;2023-04-21T12:29:08;21.20;35.10
72940;DHT22;61094;51.154;13.570;2023-04-21T12:34:11;21.30;34.60
72940;DHT22;61094;51.154;13.570;2023-04-21T12:39:12;21.50;35.40
72940;DHT22;61094;51.154;13.570;2023-04-21T12:44:17;21.80;33.80
72940;DHT22;61094;51.154;13.570;2023-04-21T12:49:22;22.20;34.70
72940;DHT22;61094;51.154;13.570;2023-04-21T12:54:23;22.50;35.30
72940;DHT22;61094;51.154;13.570;2023-04-21T12:59:25;22.60;34.90
72940;DHT22;61094;51.154;13.570;2023-04-21T13:04:28;22.60;34.50
72940;DHT22;61094;51.154;13.570;2023-04-21T13:09:30;22.80;34.70
72940;DHT22;61094;51.154;13.570;2023-04-21T13:14:32;22.70;33.40
72940;DHT22;61094;51.154;13.570;2023-04-21T13:19:35;22.30;32.80
72940;DHT22;61094;51.154;13.570;2023-04-21T13:24:37;22.40;34.50
72940;DHT22;61094;51.154;13.570;2023-04-21T13:29:39;22.70;34.90
72940;DHT22;61094;51.154;13.570;2023-04-21T13:34:42;22.40;33.80
72940;DHT22;61094;51.154;13.570;2023-04-21T13:39:43;22.30;34.10
72940;DHT22;61094;51.154;13.570;2023-04-21T13:44:46;22.20;33.80
72940;DHT22;61094;51.154;13.570;2023-04-21T13:49:49;22.00;33.90
72940;DHT22;61094;51.154;13.570;2023-04-21T13:54:51;21.80;33.10
72940;DHT22;61094;51.154;13.570;2023-04-21T13:59:53;21.20;34.70
72940;DHT22;61094;51.154;13.570;2023-04-21T14:04:56;20.60;35.60
72940;DHT22;61094;51.154;13.570;2023-04-21T14:09:58;20.40;35.90
72940;DHT22;61094;51.154;13.570;2023-04-21T14:15:00;20.40;35.70
72940;DHT22;61094;51.154;13.570;2023-04-21T14:20:03;20.60;33.80
72940;DHT22;61094;51.154;13.570;2023-04-21T14:25:07;20.40;33.90
72940;DHT22;61094;51.154;13.570;2023-04-21T14:30:09;20.40;35.70
72940;DHT22;61094;51.154;13.570;2023-04-21T14:35:12;20.80;33.80
72940;DHT22;61094;51.154;13.570;2023-04-21T14:40:14;21.20;34.40
72940;DHT22;61094;51.154;13.570;2023-04-21T14:45:16;21.30;33.80
72940;DHT22;61094;51.154;13.570;2023-04-21T14:50:19;20.90;34.40
72940;DHT22;61094;51.154;13.570;2023-04-21T14:55:21;20.60;35.20
72940;DHT22;61094;51.154;13.570;2023-04-21T15:00:23;20.30;35.10
72940;DHT22;61094;51.154;13.570;2023-04-21T15:05:26;20.20;35.20
72940;DHT22;61094;51.154;13.570;2023-04-21T15:10:29;20.20;36.10
72940;DHT22;61094;51.154;13.570;2023-04-21T15:15:31;20.30;36.30
72940;DHT22;61094;51.154;13.570;2023-04-21T15:20:34;20.60;36.30
72940;DHT22;61094;51.154;13.570;2023-04-21T15:25:36;20.60;35.30
72940;DHT22;61094;51.154;13.570;2023-04-21T15:30:38;20.10;35.10
72940;DHT22;61094;51.154;13.570;2023-04-21T15:35:41;19.70;35.50
72940;DHT22;61094;51.154;13.570;2023-04-21T15:40:42;19.60;36.70
72940;DHT22;61094;51.154;13.570;2023-04-21T15:45:44;19.80;36.10
72940;DHT22;61094;51.154;13.570;2023-04-21T15:50:47;19.60;35.60
72940;DHT22;61094;51.154;13.570;2023-04-21T15:55:49;19.50;35.70
72940;DHT22;61094;51.154;13.570;2023-04-21T16:00:51;19.50;35.70
72940;DHT22;61094;51.154;13.570;2023-04-21T16:05:54;19.50;35.80
72940;DHT22;61094;51.154;13.570;2023-04-21T16:10:56;19.40;36.00
72940;DHT22;61094;51.154;13.570;2023-04-21T16:15:58;19.30;36.20
72940;DHT22;61094;51.154;13.570;2023-04-21T16:21:01;19.20;36.40
72940;DHT22;61094;51.154;13.570;2023-04-21T16:26:03;19.10;36.90
72940;DHT22;61094;51.154;13.570;2023-04-21T16:31:05;19.00;36.60
72940;DHT22;61094;51.154;13.570;2023-04-21T16:36:08;19.00;37.50
72940;DHT22;61094;51.154;13.570;2023-04-21T16:41:10;18.90;37.30
72940;DHT22;61094;51.154;13.570;2023-04-21T16:46:12;18.80;37.10
72940;DHT22;61094;51.154;13.570;2023-04-21T16:51:15;18.70;37.10
72940;DHT22;61094;51.154;13.570;2023-04-21T16:56:16;18.60;37.50
72940;DHT22;61094;51.154;13.570;2023-04-21T17:01:19;18.40;37.90
72940;DHT22;61094;51.154;13.570;2023-04-21T17:06:22;18.30;37.90
72940;DHT22;61094;51.154;13.570;2023-04-21T17:11:24;18.10;38.10
72940;DHT22;61094;51.154;13.570;2023-04-21T17:16:27;18.00;39.00
72940;DHT22;61094;51.154;13.570;2023-04-21T17:21:30;17.90;39.20
72940;DHT22;61094;51.154;13.570;2023-04-21T17:26:32;17.70;39.30
72940;DHT22;61094;51.154;13.570;2023-04-21T17:31:34;17.60;39.80
72940;DHT22;61094;51.154;13.570;2023-04-21T17:36:37;17.40;39.80
72940;DHT22;61094;51.154;13.570;2023-04-21T17:41:40;17.30;40.20
72940;DHT22;61094;51.154;13.570;2023-04-21T17:46:42;17.20;40.20
72940;DHT22;61094;51.154;13.570;2023-04-21T17:51:45;17.00;40.40
72940;DHT22;61094;51.154;13.570;2023-04-21T17:56:47;16.90;40.70
72940;DHT22;61094;51.154;13.570;2023-04-21T18:01:49;16.80;40.80
72940;DHT22;61094;51.154;13.570;2023-04-21T18:06:52;16.60;41.10
72940;DHT22;61094;51.154;13.570;2023-04-21T18:11:54;16.50;41.10
72940;DHT22;61094;51.154;13.570;2023-04-21T18:16:56;16.40;41.50
72940;DHT22;61094;51.154;13.570;2023-04-21T18:21:59;16.30;41.50
72940;DHT22;61094;51.154;13.570;2023-04-21T18:27:01;16.10;41.90
72940;DHT22;61094;51.154;13.570;2023-04-21T18:32:03;16.00;41.80
72940;DHT22;61094;51.154;13.570;2023-04-21T18:37:07;15.80;41.30
72940;DHT22;61094;51.154;13.570;2023-04-21T18:42:08;15.80;42.20
72940;DHT22;61094;51.154;13.570;2023-04-21T18:47:10;15.60;42.20
72940;DHT22;61094;51.154;13.570;2023-04-21T18:52:14;15.50;43.30
72940;DHT22;61094;51.154;13.570;2023-04-21T18:57:15;15.40;42.60
72940;DHT22;61094;51.154;13.570;2023-04-21T19:02:18;15.30;43.10
72940;DHT22;61094;51.154;13.570;2023-04-21T19:07:21;15.20;43.00
72940;DHT22;61094;51.154;13.570;2023-04-21T19:12:23;15.10;43.30
72940;DHT22;61094;51.154;13.570;2023-04-21T19:17:25;15.00;43.50
72940;DHT22;61094;51.154;13.570;2023-04-21T19:22:28;14.90;44.10
72940;DHT22;61094;51.154;13.570;2023-04-21T19:27:31;14.70;44.40
72940;DHT22;61094;51.154;13.570;2023-04-21T19:32:33;14.50;44.80
72940;DHT22;61094;51.154;13.570;2023-04-21T19:37:36;14.30;45.00
72940;DHT22;61094;51.154;13.570;2023-04-21T19:42:38;14.20;45.10
72940;DHT22;61094;51.154;13.570;2023-04-21T19:47:40;14.20;45.30
72940;DHT22;61094;51.154;13.570;2023-04-21T19:52:43;14.10;45.40
72940;DHT22;61094;51.154;13.570;2023-04-21T19:57:46;14.00;45.70
72940;DHT22;61094;51.154;13.570;2023-04-21T20:02:47;13.90;46.00
72940;DHT22;61094;51.154;13.570;2023-04-21T20:07:50;13.80;46.10
72940;DHT22;61094;51.154;13.570;2023-04-21T20:12:52;13.70;46.30
72940;DHT22;61094;51.154;13.570;2023-04-21T20:17:54;13.70;46.80
72940;DHT22;61094;51.154;13.570;2023-04-21T20:22:57;13.50;47.60
72940;DHT22;61094;51.154;13.570;2023-04-21T20:27:59;13.40;47.40
72940;DHT22;61094;51.154;13.570;2023-04-21T20:33:01;13.20;47.50
72940;DHT22;61094;51.154;13.570;2023-04-21T20:38:04;13.00;48.80
72940;DHT22;61094;51.154;13.570;2023-04-21T20:43:07;12.90;48.80
72940;DHT22;61094;51.154;13.570;2023-04-21T20:48:09;12.80;49.00
72940;DHT22;61094;51.154;13.570;2023-04-21T20:53:12;12.80;49.40
72940;DHT22;61094;51.154;13.570;2023-04-21T20:58:14;12.70;49.60
72940;DHT22;61094;51.154;13.570;2023-04-21T21:03:16;12.70;49.50
72940;DHT22;61094;51.154;13.570;2023-04-21T21:08:20;12.60;50.60
72940;DHT22;61094;51.154;13.570;2023-04-21T21:13:22;12.50;51.80
72940;DHT22;61094;51.154;13.570;2023-04-21T21:18:24;12.40;51.40
72940;DHT22;61094;51.154;13.570;2023-04-21T21:23:27;12.40;52.10
72940;DHT22;61094;51.154;13.570;2023-04-21T21:28:29;12.40;52.10
72940;DHT22;61094;51.154;13.570;2023-04-21T21:33:31;12.40;52.80
72940;DHT22;61094;51.154;13.570;2023-04-21T21:38:34;12.30;52.70
72940;DHT22;61094;51.154;13.570;2023-04-21T21:43:36;12.30;53.00
72940;DHT22;61094;51.154;13.570;2023-04-21T21:48:38;12.20;53.50
72940;DHT22;61094;51.154;13.570;2023-04-21T21:53:41;12.10;54.40
72940;DHT22;61094;51.154;13.570;2023-04-21T21:58:42;12.00;54.30
72940;DHT22;61094;51.154;13.570;2023-04-21T22:03:44;11.80;58.20
72940;DHT22;61094;51.154;13.570;2023-04-21T22:08:47;11.60;59.60
72940;DHT22;61094;51.154;13.570;2023-04-21T22:13:49;11.40;64.40
72940;DHT22;61094;51.154;13.570;2023-04-21T22:18:51;11.20;67.30
72940;DHT22;61094;51.154;13.570;2023-04-21T22:23:55;11.10;65.90
72940;DHT22;61094;51.154;13.570;2023-04-21T22:28:57;10.90;67.80
72940;DHT22;61094;51.154;13.570;2023-04-21T22:33:59;10.90;72.90
72940;DHT22;61094;51.154;13.570;2023-04-21T22:39:02;10.70;68.30
72940;DHT22;61094;51.154;13.570;2023-04-21T22:44:05;10.60;79.20
72940;DHT22;61094;51.154;13.570;2023-04-21T22:49:07;10.40;83.20
72940;DHT22;61094;51.154;13.570;2023-04-21T22:54:10;10.30;84.00
72940;DHT22;61094;51.154;13.570;2023-04-21T22:59:12;10.10;83.70
72940;DHT22;61094;51.154;13.570;2023-04-21T23:04:14;10.00;81.60
72940;DHT22;61094;51.154;13.570;2023-04-21T23:09:17;10.00;77.50
72940;DHT22;61094;51.154;13.570;2023-04-21T23:14:19;10.10;78.80
72940;DHT22;61094;51.154;13.570;2023-04-21T23:19:20;10.20;77.50
72940;DHT22;61094;51.154;13.570;2023-04-21T23:24:23;10.20;79.00
72940;DHT22;61094;51.154;13.570;2023-04-21T23:29:25;10.20;79.50
72940;DHT22;61094;51.154;13.570;2023-04-21T23:34:27;10.20;78.80
72940;DHT22;61094;51.154;13.570;2023-04-21T23:39:30;10.10;80.20
72940;DHT22;61094;51.154;13.570;2023-04-21T23:44:31;10.00;81.80
72940;DHT22;61094;51.154;13.570;2023-04-21T23:49:33;9.90;85.20
72940;DHT22;61094;51.154;13.570;2023-04-21T23:54:36;9.80;86.50
72940;DHT22;61094;51.154;13.570;2023-04-21T23:59:38;9.70;86.30
